createdAt,value
2018-08-11T00:02:02.996Z,0.90
2018-08-11T00:04:30.264Z,1.23
2018-08-11T00:06:57.513Z,1.10
2018-08-11T00:09:24.773Z,1.40
2018-08-11T00:11:52.001Z,1.10
2018-08-11T00:14:19.371Z,1.43
2018-08-11T00:16:46.626Z,1.10
2018-08-11T00:19:13.872Z,1.30
2018-08-11T00:21:41.128Z,2.50
2018-08-11T00:24:08.373Z,3.87
2018-08-11T00:26:36.000Z,3.57
2018-08-11T00:29:03.246Z,4.43
2018-08-11T00:31:31.857Z,3.63
2018-08-11T00:33:59.104Z,4.90
2018-08-11T00:36:26.396Z,6.43
2018-08-11T00:38:53.943Z,5.00
2018-08-11T00:41:21.179Z,5.20
2018-08-11T00:43:48.460Z,4.70
2018-08-11T00:46:15.787Z,4.30
2018-08-11T00:48:43.076Z,5.17
2018-08-11T00:51:10.475Z,4.80
2018-08-11T00:53:37.763Z,3.73
2018-08-11T00:56:05.012Z,3.70
2018-08-11T00:58:32.638Z,1.97
2018-08-11T01:00:59.929Z,1.30
2018-08-11T01:03:28.749Z,1.70
2018-08-11T01:05:56.099Z,3.23
2018-08-11T01:08:23.324Z,2.50
2018-08-11T01:10:50.602Z,5.77
2018-08-11T01:13:17.828Z,6.87
2018-08-11T01:15:45.090Z,5.60
2018-08-11T01:18:12.344Z,5.57
2018-08-11T01:20:39.599Z,9.20
2018-08-11T01:23:06.937Z,8.40
2018-08-11T01:25:34.285Z,6.50
2018-08-11T01:28:01.544Z,6.43
2018-08-11T01:30:28.769Z,4.10
2018-08-11T01:32:56.054Z,3.60
2018-08-11T01:35:23.280Z,2.30
2018-08-11T01:37:50.538Z,1.43
2018-08-11T01:40:18.129Z,1.60
2018-08-11T01:42:46.499Z,1.23
2018-08-11T01:45:14.582Z,1.90
2018-08-11T01:47:42.216Z,1.10
2018-08-11T01:50:10.620Z,1.60
2018-08-11T01:52:38.613Z,1.20
2018-08-11T01:55:05.900Z,1.50
2018-08-11T01:57:33.227Z,2.43
2018-08-11T02:00:00.452Z,1.50
2018-08-11T02:02:27.701Z,1.80
2018-08-11T02:04:54.932Z,2.27
2018-08-11T02:07:22.189Z,2.07
2018-08-11T02:09:49.416Z,1.90
2018-08-11T02:12:16.659Z,2.10
2018-08-11T02:14:43.920Z,2.10
2018-08-11T02:17:11.189Z,2.00
2018-08-11T02:19:38.580Z,2.40
2018-08-11T02:22:06.128Z,2.40
2018-08-11T02:24:33.373Z,2.67
2018-08-11T02:27:00.614Z,3.10
2018-08-11T02:29:28.095Z,3.60
2018-08-11T02:31:55.448Z,3.60
2018-08-11T02:34:22.739Z,4.27
2018-08-11T02:36:49.932Z,3.50
2018-08-11T02:39:17.163Z,3.27
2018-08-11T02:41:44.440Z,3.70
2018-08-11T02:44:11.922Z,3.00
2018-08-11T02:46:39.188Z,2.67
2018-08-11T02:49:06.668Z,2.40
2018-08-11T02:51:34.356Z,2.30
2018-08-11T02:54:02.228Z,2.30
2018-08-11T02:56:29.482Z,2.37
2018-08-11T02:58:56.724Z,2.17
2018-08-11T03:01:23.977Z,2.50
2018-08-11T03:03:51.208Z,2.97
2018-08-11T03:06:18.493Z,2.93
2018-08-11T03:08:45.703Z,3.10
2018-08-11T03:11:12.990Z,2.87
2018-08-11T03:13:40.224Z,2.60
2018-08-11T03:16:07.473Z,2.73
2018-08-11T03:18:34.715Z,2.40
2018-08-11T03:21:01.960Z,2.70
2018-08-11T03:23:29.201Z,3.03
2018-08-11T03:25:56.432Z,2.07
2018-08-11T03:28:23.680Z,2.40
2018-08-11T03:30:50.940Z,2.43
2018-08-11T03:33:18.188Z,2.90
2018-08-11T03:35:45.396Z,2.40
2018-08-11T03:38:12.649Z,1.93
2018-08-11T03:40:39.881Z,2.33
2018-08-11T03:43:07.161Z,1.77
2018-08-11T03:45:34.379Z,1.87
2018-08-11T03:48:01.621Z,2.00
2018-08-11T03:50:28.892Z,2.17
2018-08-11T03:52:56.145Z,2.63
2018-08-11T03:55:23.425Z,2.00
2018-08-11T03:57:50.661Z,2.57
2018-08-11T04:00:17.976Z,2.50
2018-08-11T04:02:45.200Z,2.00
2018-08-11T04:05:12.424Z,2.17
2018-08-11T04:07:39.686Z,2.13
2018-08-11T04:10:06.907Z,3.00
2018-08-11T04:12:34.153Z,2.87
2018-08-11T04:15:01.392Z,2.20
2018-08-11T04:17:36.159Z,2.60
2018-08-11T04:20:03.402Z,2.30
2018-08-11T04:22:30.644Z,2.40
2018-08-11T04:24:57.906Z,3.07
2018-08-11T04:27:25.173Z,2.30
2018-08-11T04:29:52.384Z,2.90
2018-08-11T04:32:19.677Z,2.90
2018-08-11T04:34:46.909Z,3.70
2018-08-11T04:37:14.136Z,2.77
2018-08-11T04:39:41.409Z,3.20
2018-08-11T04:42:08.689Z,3.57
2018-08-11T04:44:35.921Z,3.33
2018-08-11T04:47:03.161Z,3.73
2018-08-11T04:49:30.416Z,3.87
2018-08-11T04:51:57.660Z,3.40
2018-08-11T04:54:24.927Z,3.93
2018-08-11T04:56:52.181Z,5.10
2018-08-11T04:59:19.468Z,4.10
2018-08-11T05:04:20.600Z,5.50
2018-08-11T05:06:47.832Z,4.40
2018-08-11T05:09:15.055Z,4.40
2018-08-11T05:11:42.348Z,3.93
2018-08-11T05:14:09.594Z,3.50
2018-08-11T05:16:37.088Z,4.00
2018-08-11T05:19:04.309Z,3.80
2018-08-11T05:21:31.879Z,3.70
2018-08-11T05:23:59.104Z,4.03
2018-08-11T05:26:26.385Z,4.17
2018-08-11T05:28:53.608Z,4.13
2018-08-11T05:31:20.876Z,5.30
2018-08-11T05:33:48.124Z,4.90
2018-08-11T05:36:15.377Z,5.43
2018-08-11T05:38:42.611Z,5.63
2018-08-11T05:41:09.856Z,6.17
2018-08-11T05:43:37.123Z,5.57
2018-08-11T05:46:04.387Z,5.50
2018-08-11T05:48:31.624Z,5.37
2018-08-11T05:50:58.849Z,6.17
2018-08-11T05:53:26.152Z,6.30
2018-08-11T05:55:53.425Z,5.93
2018-08-11T05:58:20.672Z,6.10
2018-08-11T06:00:48.396Z,6.17
2018-08-11T06:03:15.670Z,6.03
2018-08-11T06:05:42.908Z,5.87
2018-08-11T06:08:12.748Z,6.77
2018-08-11T06:10:40.038Z,6.13
2018-08-11T06:13:07.342Z,6.03
2018-08-11T06:15:34.589Z,6.43
2018-08-11T06:18:01.852Z,7.00
2018-08-11T06:20:29.196Z,7.43
2018-08-11T06:22:56.460Z,6.70
2018-08-11T06:25:23.700Z,6.17
2018-08-11T06:27:50.928Z,5.53
2018-08-11T06:30:18.195Z,8.33
2018-08-11T06:32:45.428Z,6.57
2018-08-11T06:35:12.674Z,7.57
2018-08-11T06:37:39.933Z,6.40
2018-08-11T06:40:07.559Z,6.37
2018-08-11T06:42:34.798Z,4.60
2018-08-11T06:45:02.125Z,6.10
2018-08-11T06:47:29.608Z,5.17
2018-08-11T06:49:56.854Z,5.00
2018-08-11T06:52:24.118Z,4.80
2018-08-11T06:54:51.424Z,4.67
2018-08-11T06:57:18.716Z,4.47
2018-08-11T06:59:45.965Z,5.00
2018-08-11T07:02:13.237Z,5.37
2018-08-11T07:04:40.604Z,4.53
2018-08-11T07:07:07.876Z,4.10
2018-08-11T07:09:35.144Z,4.10
2018-08-11T07:12:02.412Z,4.00
2018-08-11T07:14:29.718Z,4.60
2018-08-11T07:16:57.024Z,4.40
2018-08-11T07:19:24.263Z,4.17
2018-08-11T07:21:51.556Z,5.00
2018-08-11T07:24:18.815Z,4.80
2018-08-11T07:26:46.092Z,4.10
2018-08-11T07:29:13.337Z,4.57
2018-08-11T07:31:40.608Z,3.93
2018-08-11T07:34:07.889Z,3.70
2018-08-11T07:36:35.261Z,4.03
2018-08-11T07:39:02.453Z,4.57
2018-08-11T07:41:29.924Z,3.00
2018-08-11T07:43:57.197Z,3.13
2018-08-11T07:46:24.437Z,3.53
2018-08-11T07:48:51.877Z,2.40
2018-08-11T07:51:19.147Z,2.93
2018-08-11T07:53:52.992Z,2.57
2018-08-11T07:56:20.234Z,2.63
2018-08-11T07:58:47.496Z,1.90
2018-08-11T08:01:14.796Z,2.07
2018-08-11T08:03:42.003Z,1.93
2018-08-11T08:06:09.247Z,3.00
2018-08-11T08:08:36.507Z,1.90
2018-08-11T08:11:03.773Z,2.00
2018-08-11T08:13:31.005Z,2.07
2018-08-11T08:15:58.281Z,1.93
2018-08-11T08:18:25.570Z,1.93
2018-08-11T08:20:52.832Z,2.10
2018-08-11T08:23:20.081Z,2.10
2018-08-11T08:25:47.369Z,2.20
2018-08-11T08:28:14.658Z,2.00
2018-08-11T08:30:42.018Z,2.57
2018-08-11T08:33:09.370Z,2.10
2018-08-11T08:35:36.645Z,2.27
2018-08-11T08:38:03.917Z,2.20
2018-08-11T08:40:31.177Z,2.63
2018-08-11T08:42:58.516Z,2.00
2018-08-11T08:45:25.767Z,2.20
2018-08-11T08:47:53.005Z,2.10
2018-08-11T08:50:20.315Z,1.50
2018-08-11T08:52:47.587Z,2.00
2018-08-11T08:55:14.841Z,1.60
2018-08-11T08:57:42.112Z,6.37
2018-08-11T09:00:09.355Z,1.90
2018-08-11T09:02:36.616Z,3.23
2018-08-11T09:05:03.885Z,2.47
2018-08-11T09:07:31.148Z,1.60
2018-08-11T09:09:58.428Z,1.73
2018-08-11T09:12:25.696Z,2.20
2018-08-11T09:14:52.974Z,1.90
2018-08-11T09:17:20.306Z,1.60
2018-08-11T09:19:47.584Z,1.57
2018-08-11T09:22:14.860Z,1.60
2018-08-11T09:24:42.125Z,1.60
2018-08-11T09:27:09.427Z,1.80
2018-08-11T09:29:36.743Z,1.87
2018-08-11T09:32:04.042Z,1.80
2018-08-11T09:34:31.297Z,4.33
2018-08-11T09:36:58.540Z,3.67
2018-08-11T09:39:25.802Z,2.00
2018-08-11T09:41:53.137Z,1.80
2018-08-11T09:44:20.405Z,2.00
2018-08-11T09:46:47.786Z,1.80
2018-08-11T09:49:15.038Z,1.80
2018-08-11T09:51:42.304Z,1.70
2018-08-11T09:54:10.233Z,1.30
2018-08-11T09:56:37.481Z,1.83
2018-08-11T09:59:04.731Z,1.87
2018-08-11T10:01:37.544Z,2.20
2018-08-11T10:04:04.800Z,2.27
2018-08-11T10:06:32.060Z,2.03
2018-08-11T10:08:59.368Z,2.10
2018-08-11T10:11:26.637Z,1.40
2018-08-11T10:13:53.912Z,2.07
2018-08-11T10:16:21.652Z,1.70
2018-08-11T10:18:48.930Z,1.70
2018-08-11T10:21:16.158Z,1.70
2018-08-11T10:23:43.502Z,2.13
2018-08-11T10:26:10.766Z,1.80
2018-08-11T10:28:38.037Z,1.60
2018-08-11T10:31:05.360Z,1.70
2018-08-11T10:33:32.916Z,1.93
2018-08-11T10:36:00.496Z,1.70
2018-08-11T10:38:27.757Z,2.00
2018-08-11T10:40:55.002Z,2.00
2018-08-11T10:43:22.256Z,2.10
2018-08-11T10:45:49.546Z,2.00
2018-08-11T10:48:16.811Z,1.90
2018-08-11T10:50:44.050Z,1.63
2018-08-11T10:53:11.325Z,1.03
2018-08-11T10:55:38.602Z,1.33
2018-08-11T10:58:05.862Z,1.70
2018-08-11T11:00:33.115Z,1.60
2018-08-11T11:03:00.361Z,1.37
2018-08-11T11:05:27.589Z,1.70
2018-08-11T11:07:54.851Z,1.33
2018-08-11T11:10:22.112Z,1.50
2018-08-11T11:12:49.361Z,2.10
2018-08-11T11:15:16.628Z,1.47
2018-08-11T11:17:43.916Z,1.43
2018-08-11T11:20:12.444Z,1.40
2018-08-11T11:22:40.081Z,2.37
2018-08-11T11:25:07.472Z,2.00
2018-08-11T11:27:34.735Z,1.90
2018-08-11T11:30:02.032Z,1.63
2018-08-11T11:32:29.650Z,2.90
2018-08-11T11:34:56.984Z,1.40
2018-08-11T11:37:24.312Z,1.10
2018-08-11T11:39:51.522Z,1.10
2018-08-11T11:42:18.776Z,1.10
2018-08-11T11:44:46.113Z,1.20
2018-08-11T11:47:13.389Z,1.13
2018-08-11T11:49:40.876Z,0.90
2018-08-11T11:52:08.157Z,1.00
2018-08-11T11:54:35.405Z,1.33
2018-08-11T11:57:02.784Z,1.57
2018-08-11T11:59:30.060Z,1.37
2018-08-11T12:01:57.368Z,0.90
2018-08-11T12:04:24.605Z,1.03
2018-08-11T12:06:51.863Z,1.23
2018-08-11T12:09:19.089Z,1.17
2018-08-11T12:11:46.365Z,1.10
2018-08-11T12:14:13.634Z,1.20
2018-08-11T12:16:40.881Z,1.43
2018-08-11T12:19:08.185Z,1.03
2018-08-11T12:21:35.469Z,1.10
2018-08-11T12:24:02.773Z,1.10
2018-08-11T12:26:30.026Z,1.43
2018-08-11T12:28:57.300Z,1.30
2018-08-11T12:31:24.548Z,1.73
2018-08-11T12:33:51.803Z,1.20
2018-08-11T12:36:19.067Z,1.67
2018-08-11T12:38:46.420Z,1.33
2018-08-11T12:41:13.683Z,1.50
2018-08-11T12:43:40.951Z,1.70
2018-08-11T12:46:08.397Z,1.90
2018-08-11T12:48:35.648Z,1.57
2018-08-11T12:51:02.933Z,1.90
2018-08-11T12:53:30.229Z,2.50
2018-08-11T12:55:57.565Z,1.70
2018-08-11T12:58:24.835Z,1.83
2018-08-11T13:00:52.080Z,1.80
2018-08-11T13:03:19.441Z,1.90
2018-08-11T13:05:46.720Z,1.70
2018-08-11T13:08:13.972Z,2.00
2018-08-11T13:10:41.247Z,1.80
2018-08-11T13:13:08.660Z,2.40
2018-08-11T13:15:35.922Z,2.00
2018-08-11T13:18:03.164Z,1.77
2018-08-11T13:20:30.569Z,2.83
2018-08-11T13:22:57.853Z,2.17
2018-08-11T13:25:25.105Z,2.63
2018-08-11T13:27:52.363Z,2.10
2018-08-11T13:30:19.657Z,2.40
2018-08-11T13:32:46.893Z,2.60
2018-08-11T13:35:14.171Z,2.10
2018-08-11T13:37:41.468Z,2.30
2018-08-11T13:40:08.724Z,2.40
2018-08-11T13:42:35.979Z,2.20
2018-08-11T13:45:03.374Z,2.10
2018-08-11T13:47:30.612Z,2.63
2018-08-11T13:49:58.844Z,2.43
2018-08-11T13:52:26.081Z,2.53
2018-08-11T13:54:53.379Z,2.87
2018-08-11T13:57:20.642Z,2.40
2018-08-11T13:59:47.915Z,2.63
2018-08-11T14:02:15.148Z,3.20
2018-08-11T14:04:42.433Z,2.40
2018-08-11T14:07:09.697Z,2.00
2018-08-11T14:09:36.938Z,2.23
2018-08-11T14:12:04.208Z,1.80
2018-08-11T14:14:31.451Z,1.97
2018-08-11T14:16:58.728Z,1.80
2018-08-11T14:19:26.124Z,1.80
2018-08-11T14:21:53.389Z,2.20
2018-08-11T14:24:20.647Z,2.57
2018-08-11T14:26:47.897Z,1.97
2018-08-11T14:29:15.229Z,2.10
2018-08-11T14:31:42.472Z,2.17
2018-08-11T14:34:09.757Z,2.63
2018-08-11T14:36:36.988Z,2.80
2018-08-11T14:39:06.425Z,2.37
2018-08-11T14:41:33.759Z,2.20
2018-08-11T14:44:01.081Z,1.70
2018-08-11T14:46:28.360Z,1.40
2018-08-11T14:48:55.624Z,1.90
2018-08-11T14:51:22.874Z,1.73
2018-08-11T14:53:50.160Z,2.10
2018-08-11T14:56:17.508Z,1.70
2018-08-11T14:58:44.793Z,2.00
2018-08-11T15:01:12.145Z,1.73
2018-08-11T15:03:39.414Z,1.70
2018-08-11T15:06:06.740Z,1.80
2018-08-11T15:08:33.999Z,3.70
2018-08-11T15:11:01.262Z,3.27
2018-08-11T15:13:28.514Z,3.80
2018-08-11T15:15:55.816Z,2.07
2018-08-11T15:18:23.057Z,1.83
2018-08-11T15:20:50.339Z,2.03
2018-08-11T15:23:17.609Z,2.00
2018-08-11T15:25:44.847Z,1.70
2018-08-11T15:28:12.136Z,2.20
2018-08-11T15:30:39.386Z,1.30
2018-08-11T15:33:06.656Z,1.80
2018-08-11T15:35:34.023Z,2.00
2018-08-11T15:38:01.274Z,2.97
2018-08-11T15:40:28.640Z,2.63
2018-08-11T15:42:56.016Z,2.40
2018-08-11T15:45:23.282Z,3.50
2018-08-11T15:47:50.543Z,2.60
2018-08-11T15:50:17.810Z,2.10
2018-08-11T15:52:45.063Z,1.83
2018-08-11T15:55:12.328Z,2.80
2018-08-11T15:57:39.586Z,2.50
2018-08-11T16:00:07.525Z,2.60
2018-08-11T16:02:34.780Z,3.30
2018-08-11T16:05:02.036Z,2.50
2018-08-11T16:07:29.302Z,2.50
2018-08-11T16:09:56.587Z,2.40
2018-08-11T16:12:23.844Z,2.70
2018-08-11T16:14:51.433Z,2.10
2018-08-11T16:17:18.816Z,2.20
2018-08-11T16:19:46.082Z,2.17
2018-08-11T16:22:13.361Z,2.50
2018-08-11T16:24:40.643Z,2.17
2018-08-11T16:27:07.873Z,1.80
2018-08-11T16:29:35.139Z,1.70
2018-08-11T16:32:02.393Z,3.10
2018-08-11T16:34:29.658Z,2.20
2018-08-11T16:36:56.919Z,2.50
2018-08-11T16:39:24.245Z,6.00
2018-08-11T16:41:51.465Z,2.20
2018-08-11T16:44:18.694Z,2.07
2018-08-11T16:46:46.047Z,5.50
2018-08-11T16:49:13.329Z,5.10
2018-08-11T16:51:40.590Z,3.63
2018-08-11T16:54:07.865Z,2.97
2018-08-11T16:56:35.142Z,2.80
2018-08-11T16:59:02.383Z,2.67
2018-08-11T17:01:29.644Z,2.23
2018-08-11T17:03:57.045Z,2.33
2018-08-11T17:06:24.324Z,2.30
2018-08-11T17:08:51.693Z,2.70
2018-08-11T17:11:18.966Z,2.83
2018-08-11T17:13:46.255Z,3.00
2018-08-11T17:16:13.507Z,2.50
2018-08-11T17:18:40.754Z,2.23
2018-08-11T17:21:08.003Z,2.87
2018-08-11T17:23:35.272Z,2.60
2018-08-11T17:26:02.528Z,3.20
2018-08-11T17:28:29.779Z,3.47
2018-08-11T17:30:57.050Z,2.70
2018-08-11T17:33:24.336Z,3.07
2018-08-11T17:35:51.605Z,3.07
2018-08-11T17:38:18.967Z,3.10
2018-08-11T17:40:46.217Z,3.23
2018-08-11T17:43:13.457Z,4.27
2018-08-11T17:45:40.728Z,4.37
2018-08-11T17:48:07.997Z,4.87
2018-08-11T17:50:35.221Z,5.23
2018-08-11T17:53:02.500Z,4.60
2018-08-11T17:55:29.860Z,3.03
2018-08-11T17:57:57.068Z,3.23
2018-08-11T18:00:24.358Z,3.10
2018-08-11T18:02:51.725Z,2.87
2018-08-11T18:05:18.987Z,3.37
2018-08-11T18:07:46.223Z,3.20
2018-08-11T18:10:13.495Z,2.57
2018-08-11T18:12:40.773Z,3.30
2018-08-11T18:15:08.017Z,5.13
2018-08-11T18:17:35.570Z,3.40
2018-08-11T18:20:02.887Z,3.63
2018-08-11T18:22:31.118Z,2.87
2018-08-11T18:24:58.359Z,3.27
2018-08-11T18:27:25.650Z,3.30
2018-08-11T18:29:52.914Z,5.30
2018-08-11T18:32:20.205Z,3.57
2018-08-11T18:34:47.497Z,3.80
2018-08-11T18:37:14.705Z,5.50
2018-08-11T18:39:41.976Z,3.83
2018-08-11T18:42:09.242Z,4.03
2018-08-11T18:44:36.476Z,3.47
2018-08-11T18:47:03.738Z,3.80
2018-08-11T18:49:30.996Z,3.43
2018-08-11T18:51:58.347Z,3.50
2018-08-11T18:54:25.626Z,3.50
2018-08-11T18:56:52.912Z,4.03
2018-08-11T18:59:20.189Z,3.60
2018-08-11T19:01:47.486Z,3.37
2018-08-11T19:06:48.667Z,3.27
2018-08-11T19:09:15.901Z,3.67
2018-08-11T19:11:43.505Z,3.77
2018-08-11T19:14:10.761Z,4.00
2018-08-11T19:16:38.034Z,3.43
2018-08-11T19:19:05.596Z,2.87
2018-08-11T19:21:32.913Z,3.43
2018-08-11T19:24:00.277Z,4.27
2018-08-11T19:26:27.524Z,3.30
2018-08-11T19:28:55.253Z,3.60
2018-08-11T19:31:22.529Z,4.03
2018-08-11T19:33:49.917Z,4.37
2018-08-11T19:36:17.240Z,4.70
2018-08-11T19:38:44.572Z,3.73
2018-08-11T19:41:11.920Z,4.97
2018-08-11T19:43:39.135Z,3.77
2018-08-11T19:46:06.423Z,3.83
2018-08-11T19:48:33.680Z,4.30
2018-08-11T19:51:00.969Z,4.07
2018-08-11T19:53:28.288Z,4.90
2018-08-11T19:55:55.639Z,4.53
2018-08-11T19:58:22.889Z,4.80
2018-08-11T20:00:50.143Z,5.27
2018-08-11T20:03:17.406Z,4.13
2018-08-11T20:05:44.683Z,4.90
2018-08-11T20:08:12.031Z,4.47
2018-08-11T20:10:39.367Z,3.97
2018-08-11T20:13:06.666Z,4.27
2018-08-11T20:15:33.960Z,4.83
2018-08-11T20:18:01.227Z,4.60
2018-08-11T20:20:28.596Z,4.30
2018-08-11T20:22:55.847Z,4.70
2018-08-11T20:25:23.389Z,4.27
2018-08-11T20:27:50.503Z,4.80
2018-08-11T20:30:17.762Z,4.73
2018-08-11T20:32:45.071Z,5.17
2018-08-11T20:35:12.333Z,4.27
2018-08-11T20:37:39.655Z,4.43
2018-08-11T20:40:06.937Z,4.57
2018-08-11T20:42:34.189Z,4.93
2018-08-11T20:45:01.530Z,4.70
2018-08-11T20:47:28.884Z,4.20
2018-08-11T20:49:56.146Z,4.50
2018-08-11T20:52:23.421Z,4.13
2018-08-11T20:54:50.712Z,3.70
2018-08-11T20:57:18.039Z,4.83
2018-08-11T20:59:45.413Z,5.83
2018-08-11T21:02:12.733Z,4.40
2018-08-11T21:04:40.066Z,3.90
2018-08-11T21:07:07.551Z,3.90
2018-08-11T21:09:34.855Z,5.30
2018-08-11T21:12:02.104Z,4.60
2018-08-11T21:14:29.385Z,4.23
2018-08-11T21:16:56.649Z,4.30
2018-08-11T21:19:24.137Z,4.30
2018-08-11T21:21:51.423Z,4.70
2018-08-11T21:24:18.677Z,5.03
2018-08-11T21:26:45.956Z,4.60
2018-08-11T21:29:13.201Z,3.93
2018-08-11T21:31:40.537Z,4.27
2018-08-11T21:34:07.770Z,4.87
2018-08-11T21:36:35.016Z,4.90
2018-08-11T21:39:02.317Z,4.40
2018-08-11T21:41:29.581Z,5.30
2018-08-11T21:43:56.879Z,5.47
2018-08-11T21:46:24.252Z,5.10
2018-08-11T21:48:51.492Z,5.57
2018-08-11T21:51:18.747Z,5.40
2018-08-11T21:53:46.098Z,5.43
2018-08-11T21:56:13.371Z,6.10
2018-08-11T21:58:40.632Z,6.33
2018-08-11T22:01:11.724Z,5.70
2018-08-11T22:03:39.244Z,6.00
2018-08-11T22:06:06.823Z,6.10
2018-08-11T22:08:34.123Z,6.03
2018-08-11T22:11:01.371Z,5.17
2018-08-11T22:13:28.623Z,5.43
2018-08-11T22:15:55.885Z,5.60
2018-08-11T22:18:23.217Z,4.73
2018-08-11T22:20:50.576Z,5.63
2018-08-11T22:23:17.842Z,6.10
2018-08-11T22:25:45.089Z,5.70
2018-08-11T22:28:12.346Z,5.60
2018-08-11T22:30:39.612Z,6.03
2018-08-11T22:33:06.868Z,7.23
2018-08-11T22:35:34.096Z,5.67
2018-08-11T22:38:01.349Z,6.00
2018-08-11T22:40:28.580Z,6.30
2018-08-11T22:42:55.849Z,6.90
2018-08-11T22:45:23.200Z,6.60
2018-08-11T22:47:50.568Z,11.53
2018-08-11T22:50:17.789Z,6.20
2018-08-11T22:52:45.119Z,6.83
2018-08-11T22:55:12.349Z,6.10
2018-08-11T22:57:39.600Z,6.70
2018-08-11T23:00:10.499Z,7.50
2018-08-11T23:02:37.727Z,7.17
2018-08-11T23:05:05.012Z,7.47
2018-08-11T23:07:32.365Z,7.27
2018-08-11T23:09:59.606Z,6.77
2018-08-11T23:12:26.858Z,7.07
2018-08-11T23:14:54.101Z,6.33
2018-08-11T23:17:21.457Z,6.73
2018-08-11T23:19:48.704Z,6.37
2018-08-11T23:22:15.956Z,7.20
2018-08-11T23:24:43.236Z,7.47
2018-08-11T23:27:10.473Z,6.53
2018-08-11T23:29:37.735Z,7.30
2018-08-11T23:32:04.976Z,7.03
2018-08-11T23:34:32.256Z,7.20
2018-08-11T23:36:59.510Z,7.80
2018-08-11T23:39:26.740Z,7.67
2018-08-11T23:41:54.000Z,7.17
2018-08-11T23:44:21.245Z,7.67
2018-08-11T23:46:48.501Z,7.90
2018-08-11T23:49:15.796Z,7.37
2018-08-11T23:51:43.041Z,7.40
2018-08-11T23:54:10.266Z,7.10
2018-08-11T23:56:37.524Z,7.83
2018-08-11T23:59:04.789Z,7.50
